LIRA

Rome/Ciampino Airport

Airport
ICAO code
LIRA
IATA Code
CIA
Summary
ICAO Region
EUR
ICAO Territory
Location

Ciampino, Lazio

Serving
Rome
Elevation
427 ft
Coordinates
41° 47' 54" N , 12° 35' 48" E
KCC
Csa
Metar
Observation
LIRA 170950Z 21009KT 160V240 CAVOK 33/16 Q1013
Station
Roma / Ciampino
Date/Time
2022-08-17 09:50:00
Wind direction
210°
Wind speed
09 kts
Lowest cloud amount
clouds and visibility OK
Temperature
33°C
Dew point
16°C
Humidity
36%
QNH
1013 hPa
Weather condition
n/a

Secondary international airport serving Rome.

Climatology

Dry-summer subtropical ”Mediterranean" climate (Köppen climate classification Csa) - characterized by hot, dry summers and mild winters. During the summer, subtropical high pressure cells dominate, making rainfall unlikely except for the occasional thunderstorm. In the winter, periodic storms bring rain (snow at higher elevations).

Runways

Designator Length Width Surface Rops
15/33 2207 47 ASP Yes/Yes

Airport map

Aerial View

SKYbrary Partners:

Safety knowledge contributed by: